createdAt,value
2023-03-21T00:01:54.447Z,94.55
2023-03-21T00:04:23.823Z,95.18
2023-03-21T00:06:51.728Z,97.56
2023-03-21T00:09:19.918Z,95.39
2023-03-21T00:11:48.169Z,95.16
2023-03-21T00:14:18.813Z,95.14
2023-03-21T00:16:50.505Z,95.71
2023-03-21T00:19:19.276Z,96.94
2023-03-21T00:22:08.746Z,96.76
2023-03-21T00:24:37.474Z,94.59
2023-03-21T00:27:34.250Z,96.09
2023-03-21T00:29:53.567Z,96.48
2023-03-21T00:32:23.015Z,94.70
2023-03-21T00:35:11.813Z,96.86
2023-03-21T00:37:41.240Z,94.53
2023-03-21T00:40:23.074Z,95.37
2023-03-21T00:42:53.079Z,95.68
2023-03-21T00:45:22.070Z,95.33
2023-03-21T00:47:50.021Z,94.15
2023-03-21T00:50:18.444Z,94.64
2023-03-21T00:52:47.715Z,94.06
2023-03-21T00:55:16.967Z,93.69
2023-03-21T00:57:47.469Z,94.24
2023-03-21T01:00:19.208Z,93.82
2023-03-21T01:03:02.581Z,93.75
2023-03-21T01:05:52.733Z,93.18
2023-03-21T01:08:29.343Z,92.60
2023-03-21T01:11:04.899Z,92.94
2023-03-21T01:13:34.620Z,93.85
2023-03-21T01:16:07.019Z,92.57
2023-03-21T01:18:36.703Z,91.26
2023-03-21T01:21:08.812Z,91.64
2023-03-21T01:23:38.234Z,92.36
2023-03-21T01:26:06.911Z,91.37
2023-03-21T01:28:37.792Z,91.32
2023-03-21T01:31:07.030Z,91.15
2023-03-21T01:33:35.595Z,92.06
2023-03-21T01:36:12.672Z,91.67
2023-03-21T01:38:42.589Z,91.87
2023-03-21T01:41:21.955Z,91.89
2023-03-21T01:43:49.788Z,92.81
2023-03-21T01:46:47.829Z,92.63
2023-03-21T01:49:26.072Z,92.04
2023-03-21T01:52:01.045Z,93.28
2023-03-21T01:54:37.361Z,92.41
2023-03-21T01:57:09.864Z,93.38
2023-03-21T01:59:41.936Z,92.41
2023-03-21T02:02:14.298Z,92.93
2023-03-21T02:04:50.797Z,92.95
2023-03-21T02:07:25.723Z,93.79
2023-03-21T02:09:56.036Z,92.59
2023-03-21T02:12:23.994Z,93.06
2023-03-21T02:14:54.122Z,94.24
2023-03-21T02:17:30.648Z,93.82
2023-03-21T02:20:37.912Z,93.38
2023-03-21T02:23:51.198Z,94.06
2023-03-21T02:27:04.749Z,93.83
2023-03-21T02:30:05.652Z,93.13
2023-03-21T02:32:56.428Z,93.21
2023-03-21T02:35:39.074Z,94.39
2023-03-21T02:38:15.419Z,94.30
2023-03-21T02:40:51.255Z,95.39
2023-03-21T02:43:28.273Z,94.81
2023-03-21T02:46:02.074Z,94.62
2023-03-21T02:48:49.853Z,95.37
2023-03-21T02:51:21.169Z,97.01
2023-03-21T02:54:21.965Z,96.47
2023-03-21T02:56:43.422Z,96.35
2023-03-21T02:59:11.722Z,95.14
2023-03-21T03:01:39.518Z,95.23
2023-03-21T03:04:19.672Z,95.97
2023-03-21T03:07:04.552Z,96.37
2023-03-21T03:09:45.464Z,97.17
2023-03-21T03:12:21.433Z,97.31
2023-03-21T03:15:03.876Z,96.33
2023-03-21T03:17:50.478Z,97.54
2023-03-21T03:20:31.553Z,98.22
2023-03-21T03:23:10.848Z,100.00
2023-03-21T03:25:46.191Z,100.00
2023-03-21T03:28:16.744Z,100.00
2023-03-21T03:31:00.843Z,100.00
2023-03-21T03:33:37.093Z,100.00
2023-03-21T03:36:07.894Z,100.00
2023-03-21T03:38:39.562Z,100.00
2023-03-21T03:41:14.733Z,100.00
2023-03-21T03:43:50.814Z,100.00
2023-03-21T03:46:24.043Z,100.00
2023-03-21T03:48:56.582Z,100.00
2023-03-21T03:51:28.910Z,100.00
2023-03-21T03:53:59.900Z,100.00
2023-03-21T03:56:30.245Z,100.00
2023-03-21T03:58:58.480Z,100.00
2023-03-21T04:01:26.661Z,100.00
2023-03-21T04:04:06.916Z,100.00
2023-03-21T04:06:39.989Z,100.00
2023-03-21T04:09:19.138Z,100.00
2023-03-21T04:11:49.648Z,100.00
2023-03-21T04:14:17.774Z,100.00
2023-03-21T04:16:45.490Z,100.00
2023-03-21T04:19:13.430Z,100.00
2023-03-21T04:21:41.191Z,100.00
2023-03-21T04:24:09.465Z,100.00
2023-03-21T04:26:37.335Z,100.00
2023-03-21T04:29:06.846Z,100.00
2023-03-21T04:31:36.113Z,100.00
2023-03-21T04:34:09.700Z,100.00
2023-03-21T04:36:42.969Z,100.00
2023-03-21T04:39:13.145Z,100.00
2023-03-21T04:41:41.350Z,100.00
2023-03-21T04:44:11.867Z,100.00
2023-03-21T04:46:40.148Z,100.00
2023-03-21T04:49:08.595Z,100.00
2023-03-21T04:51:37.308Z,100.00
2023-03-21T04:54:05.971Z,100.00
2023-03-21T04:56:35.566Z,100.00
2023-03-21T04:59:07.284Z,100.00
2023-03-21T05:01:36.453Z,100.00
2023-03-21T05:04:05.891Z,100.00
2023-03-21T05:06:34.480Z,100.00
2023-03-21T05:09:05.463Z,100.00
2023-03-21T05:11:36.011Z,100.00
2023-03-21T05:14:04.192Z,100.00
2023-03-21T05:16:31.945Z,100.00
2023-03-21T05:19:04.149Z,100.00
2023-03-21T05:21:34.111Z,100.00
2023-03-21T05:24:03.494Z,100.00
2023-03-21T05:26:31.352Z,100.00
2023-03-21T05:28:59.089Z,100.00
2023-03-21T05:31:26.843Z,100.00
2023-03-21T05:33:54.557Z,100.00
2023-03-21T05:36:23.694Z,100.00
2023-03-21T05:38:51.442Z,100.00
2023-03-21T05:41:21.290Z,100.00
2023-03-21T05:43:49.058Z,100.00
2023-03-21T05:46:16.903Z,100.00
2023-03-21T05:48:44.640Z,100.00
2023-03-21T05:51:12.385Z,100.00
2023-03-21T05:53:41.459Z,100.00
2023-03-21T05:56:10.376Z,100.00
2023-03-21T05:58:38.120Z,100.00
2023-03-21T06:01:06.408Z,100.00
2023-03-21T06:03:34.212Z,100.00
2023-03-21T06:06:03.454Z,100.00
2023-03-21T06:08:31.771Z,100.00
2023-03-21T06:11:00.884Z,100.00
2023-03-21T06:13:28.839Z,100.00
2023-03-21T06:15:56.940Z,100.00
2023-03-21T06:18:24.689Z,100.00
2023-03-21T06:20:52.424Z,100.00
2023-03-21T06:23:20.197Z,100.00
2023-03-21T06:25:49.327Z,100.00
2023-03-21T06:28:18.559Z,100.00
2023-03-21T06:30:46.310Z,100.00
2023-03-21T06:33:14.040Z,100.00
2023-03-21T06:35:41.807Z,100.00
2023-03-21T06:38:09.590Z,100.00
2023-03-21T06:40:38.975Z,100.00
2023-03-21T06:43:06.689Z,100.00
2023-03-21T06:45:36.334Z,100.00
2023-03-21T06:48:04.328Z,100.00
2023-03-21T06:50:32.086Z,100.00
2023-03-21T06:52:59.813Z,100.00
2023-03-21T06:55:28.924Z,100.00
2023-03-21T06:57:58.347Z,100.00
2023-03-21T07:00:26.643Z,100.00
2023-03-21T07:02:55.759Z,100.00
2023-03-21T07:05:23.539Z,100.00
2023-03-21T07:07:51.237Z,100.00
2023-03-21T07:10:19.004Z,100.00
2023-03-21T07:12:46.742Z,100.00
2023-03-21T07:15:14.469Z,100.00
2023-03-21T07:17:42.177Z,100.00
2023-03-21T07:20:13.357Z,100.00
2023-03-21T07:22:41.374Z,100.00
2023-03-21T07:25:10.719Z,100.00
2023-03-21T07:27:40.942Z,100.00
2023-03-21T07:30:11.056Z,100.00
2023-03-21T07:32:39.689Z,100.00
2023-03-21T07:35:09.126Z,100.00
2023-03-21T07:37:38.492Z,100.00
2023-03-21T07:40:10.429Z,100.00
2023-03-21T07:42:38.285Z,100.00
2023-03-21T07:45:07.877Z,100.00
2023-03-21T07:47:36.587Z,100.00
2023-03-21T07:50:05.442Z,100.00
2023-03-21T07:52:33.951Z,100.00
2023-03-21T07:55:03.031Z,100.00
2023-03-21T07:57:30.764Z,100.00
2023-03-21T07:59:58.493Z,100.00
2023-03-21T08:02:26.604Z,100.00
2023-03-21T08:04:54.415Z,100.00
2023-03-21T08:07:22.332Z,100.00
2023-03-21T08:09:50.071Z,100.00
2023-03-21T08:12:19.187Z,100.00
2023-03-21T08:14:46.920Z,100.00
2023-03-21T08:17:14.623Z,100.00
2023-03-21T08:19:42.343Z,100.00
2023-03-21T08:22:10.941Z,100.00
2023-03-21T08:24:38.725Z,100.00
2023-03-21T08:27:06.526Z,100.00
2023-03-21T08:29:40.437Z,100.00
2023-03-21T08:32:08.229Z,100.00
2023-03-21T08:34:36.487Z,100.00
2023-03-21T08:37:04.371Z,100.00
2023-03-21T08:39:32.217Z,100.00
2023-03-21T08:41:59.952Z,100.00
2023-03-21T08:44:27.706Z,100.00
2023-03-21T08:46:56.748Z,100.00
2023-03-21T08:49:24.495Z,100.00
2023-03-21T08:51:56.841Z,100.00
2023-03-21T08:54:24.937Z,100.00
2023-03-21T08:56:52.844Z,100.00
2023-03-21T08:59:20.818Z,100.00
2023-03-21T09:01:48.702Z,100.00
2023-03-21T09:04:18.921Z,100.00
2023-03-21T09:06:48.851Z,99.97
2023-03-21T09:09:16.944Z,97.22
2023-03-21T09:11:44.815Z,99.83
2023-03-21T09:14:12.906Z,98.42
2023-03-21T09:16:41.257Z,97.50
2023-03-21T09:19:09.702Z,95.69
2023-03-21T09:21:39.210Z,94.32
2023-03-21T09:24:07.463Z,94.20
2023-03-21T09:26:35.585Z,93.79
2023-03-21T09:29:04.950Z,92.39
2023-03-21T09:31:32.908Z,93.63
2023-03-21T09:34:01.068Z,93.43
2023-03-21T09:36:32.482Z,94.86
2023-03-21T09:39:03.928Z,94.23
2023-03-21T09:41:58.626Z,92.62
2023-03-21T09:44:37.531Z,94.84
2023-03-21T09:47:20.680Z,94.80
2023-03-21T09:49:56.632Z,95.72
2023-03-21T09:52:32.367Z,97.08
2023-03-21T09:55:01.342Z,96.87
2023-03-21T09:57:35.265Z,98.17
2023-03-21T10:00:15.914Z,100.00
2023-03-21T10:02:47.115Z,100.00
2023-03-21T10:05:19.574Z,100.00
2023-03-21T10:07:52.576Z,100.00
2023-03-21T10:10:27.292Z,100.00
2023-03-21T10:12:56.418Z,100.00
2023-03-21T10:15:26.744Z,100.00
2023-03-21T10:18:01.335Z,100.00
2023-03-21T10:20:32.588Z,97.91
2023-03-21T10:23:04.675Z,97.08
2023-03-21T10:25:36.599Z,95.85
2023-03-21T10:28:07.390Z,93.35
2023-03-21T10:30:40.971Z,94.64
2023-03-21T10:33:16.826Z,91.09
2023-03-21T10:35:47.869Z,91.73
2023-03-21T10:38:18.962Z,88.37
2023-03-21T10:40:48.055Z,85.08
2023-03-21T10:43:37.466Z,87.82
2023-03-21T10:46:12.380Z,84.68
2023-03-21T10:48:46.004Z,79.78
2023-03-21T10:51:20.248Z,77.05
2023-03-21T10:53:52.401Z,75.11
2023-03-21T10:56:27.743Z,76.75
2023-03-21T10:58:59.698Z,74.74
2023-03-21T11:01:31.249Z,74.39
2023-03-21T11:04:02.011Z,73.60
2023-03-21T11:06:31.950Z,69.83
2023-03-21T11:09:05.593Z,70.42
2023-03-21T11:11:39.928Z,70.17
2023-03-21T11:14:09.609Z,71.07
2023-03-21T11:16:41.157Z,70.79
2023-03-21T11:19:17.087Z,69.95
2023-03-21T11:21:45.425Z,69.43
2023-03-21T11:24:16.219Z,71.03
2023-03-21T11:26:48.062Z,67.47
2023-03-21T11:29:27.811Z,67.50
2023-03-21T11:32:01.987Z,66.59
2023-03-21T11:34:35.041Z,68.12
2023-03-21T11:37:03.893Z,67.25
2023-03-21T11:39:34.390Z,65.99
2023-03-21T11:42:03.664Z,67.48
2023-03-21T11:44:34.568Z,64.62
2023-03-21T11:47:02.872Z,65.73
2023-03-21T11:49:31.790Z,62.11
2023-03-21T11:52:13.563Z,63.41
2023-03-21T11:54:58.973Z,63.27
2023-03-21T11:57:37.818Z,60.85
2023-03-21T12:00:16.450Z,64.79
2023-03-21T12:03:28.858Z,62.54
2023-03-21T12:06:03.245Z,61.95
2023-03-21T12:08:41.513Z,64.07
2023-03-21T12:11:16.587Z,62.28
2023-03-21T12:14:00.338Z,64.03
2023-03-21T12:16:53.438Z,64.36
2023-03-21T12:19:48.980Z,64.91
2023-03-21T12:22:28.986Z,65.73
2023-03-21T12:24:58.753Z,65.88
2023-03-21T12:27:39.187Z,64.12
2023-03-21T12:30:23.637Z,62.55
2023-03-21T12:33:02.833Z,63.71
2023-03-21T12:35:46.431Z,65.62
2023-03-21T12:38:17.818Z,66.48
2023-03-21T12:41:02.658Z,67.53
2023-03-21T12:43:40.421Z,65.52
2023-03-21T12:46:17.041Z,63.97
2023-03-21T12:48:48.556Z,61.69
2023-03-21T12:51:20.285Z,62.37
2023-03-21T12:53:56.744Z,61.58
2023-03-21T12:56:29.124Z,61.00
2023-03-21T12:59:02.012Z,60.94
2023-03-21T13:01:31.848Z,59.54
2023-03-21T13:04:20.224Z,58.35
2023-03-21T13:06:50.006Z,55.75
2023-03-21T13:09:36.831Z,56.17
2023-03-21T13:12:17.073Z,55.16
2023-03-21T13:14:53.333Z,55.50
2023-03-21T13:17:28.204Z,56.50
2023-03-21T13:20:08.133Z,56.60
2023-03-21T13:22:36.050Z,56.28
2023-03-21T13:25:07.565Z,56.50
2023-03-21T13:27:37.243Z,58.87
2023-03-21T13:30:07.481Z,60.30
2023-03-21T13:32:39.185Z,60.12
2023-03-21T13:35:16.593Z,59.11
2023-03-21T13:37:51.777Z,57.04
2023-03-21T13:40:26.022Z,58.04
2023-03-21T13:42:57.012Z,57.82
2023-03-21T13:45:29.257Z,56.34
2023-03-21T13:48:00.593Z,59.12
2023-03-21T13:50:50.733Z,57.74
2023-03-21T13:53:33.908Z,60.02
2023-03-21T13:56:09.243Z,58.65
2023-03-21T13:58:40.058Z,60.52
2023-03-21T14:01:23.743Z,60.23
2023-03-21T14:04:00.004Z,61.02
2023-03-21T14:06:35.098Z,61.90
2023-03-21T14:09:04.064Z,61.45
2023-03-21T14:11:33.611Z,63.89
2023-03-21T14:14:03.397Z,64.89
2023-03-21T14:16:32.489Z,65.58
2023-03-21T14:19:04.884Z,67.71
2023-03-21T14:21:35.865Z,66.71
2023-03-21T14:24:05.962Z,67.07
2023-03-21T14:26:35.911Z,66.45
2023-03-21T14:29:09.628Z,67.31
2023-03-21T14:31:43.396Z,68.74
2023-03-21T14:34:12.655Z,66.57
2023-03-21T14:36:45.736Z,64.02
2023-03-21T14:39:19.156Z,66.10
2023-03-21T14:41:50.038Z,66.62
2023-03-21T14:44:26.116Z,66.03
2023-03-21T14:46:55.631Z,64.30
2023-03-21T14:49:27.736Z,64.17
2023-03-21T14:51:57.869Z,64.05
2023-03-21T14:54:28.151Z,67.04
2023-03-21T14:57:01.346Z,67.56
2023-03-21T14:59:33.114Z,67.24
2023-03-21T15:02:04.060Z,68.70
2023-03-21T15:04:33.964Z,68.54
2023-03-21T15:07:05.264Z,66.25
2023-03-21T15:09:35.748Z,65.41
2023-03-21T15:12:09.644Z,63.79
2023-03-21T15:14:39.036Z,66.14
2023-03-21T15:17:09.158Z,65.05
2023-03-21T15:19:40.406Z,64.49
2023-03-21T15:22:15.860Z,64.49
2023-03-21T15:24:48.212Z,64.06
2023-03-21T15:27:19.836Z,60.58
2023-03-21T15:29:51.022Z,61.47
2023-03-21T15:32:22.716Z,63.15
2023-03-21T15:34:54.719Z,61.68
2023-03-21T15:37:24.774Z,60.22
2023-03-21T15:40:09.401Z,58.87
2023-03-21T15:42:40.426Z,59.82
2023-03-21T15:45:18.432Z,62.48
2023-03-21T15:47:53.487Z,61.68
2023-03-21T15:50:33.913Z,61.50
2023-03-21T15:53:03.880Z,62.38
2023-03-21T15:55:36.242Z,62.42
2023-03-21T15:58:07.634Z,64.48
2023-03-21T16:00:41.168Z,66.90
2023-03-21T16:03:18.143Z,65.18
2023-03-21T16:06:08.841Z,62.56
2023-03-21T16:08:40.450Z,64.20
2023-03-21T16:11:15.061Z,65.39
2023-03-21T16:13:42.789Z,66.03
2023-03-21T16:16:17.583Z,67.03
2023-03-21T16:18:45.406Z,67.58
2023-03-21T16:21:16.534Z,67.72
2023-03-21T16:23:44.262Z,69.10
2023-03-21T16:26:14.664Z,67.61
2023-03-21T16:28:42.375Z,65.92
2023-03-21T16:31:14.780Z,66.17
2023-03-21T16:33:42.664Z,66.44
2023-03-21T16:36:17.805Z,67.54
2023-03-21T16:38:46.019Z,66.23
2023-03-21T16:41:14.809Z,67.94
2023-03-21T16:43:43.902Z,67.46
2023-03-21T16:46:14.860Z,70.11
2023-03-21T16:48:43.313Z,71.86
2023-03-21T16:51:16.069Z,72.75
2023-03-21T16:53:44.315Z,75.34
2023-03-21T16:56:16.130Z,71.16
2023-03-21T16:58:44.437Z,73.03
2023-03-21T17:01:15.502Z,72.19
2023-03-21T17:03:43.885Z,72.10
2023-03-21T17:06:17.078Z,73.42
2023-03-21T17:08:45.233Z,73.15
2023-03-21T17:11:16.401Z,74.10
2023-03-21T17:13:44.701Z,73.01
2023-03-21T17:16:13.511Z,74.25
2023-03-21T17:18:41.532Z,73.53
2023-03-21T17:21:14.731Z,73.01
2023-03-21T17:23:44.534Z,73.71
2023-03-21T17:26:14.466Z,75.12
2023-03-21T17:28:42.626Z,74.81
2023-03-21T17:31:15.034Z,75.70
2023-03-21T17:33:43.221Z,76.47
2023-03-21T17:36:15.643Z,77.00
2023-03-21T17:38:45.855Z,77.18
2023-03-21T17:41:15.306Z,78.35
2023-03-21T17:43:43.051Z,78.97
2023-03-21T17:46:14.393Z,79.42
2023-03-21T17:48:42.610Z,81.69
2023-03-21T17:51:12.746Z,82.13
2023-03-21T17:53:40.556Z,81.04
2023-03-21T17:56:13.823Z,79.98
2023-03-21T17:58:41.537Z,80.87
2023-03-21T18:01:09.424Z,80.21
2023-03-21T18:03:37.102Z,81.08
2023-03-21T18:06:05.905Z,82.04
2023-03-21T18:08:34.126Z,80.04
2023-03-21T18:11:01.867Z,79.67
2023-03-21T18:13:31.195Z,79.72
2023-03-21T18:15:59.825Z,84.04
2023-03-21T18:18:28.246Z,84.15
2023-03-21T18:20:58.456Z,85.67
2023-03-21T18:23:26.647Z,84.94
2023-03-21T18:25:54.412Z,82.90
2023-03-21T18:28:22.594Z,82.91
2023-03-21T18:31:08.283Z,84.64
2023-03-21T18:33:40.305Z,85.22
2023-03-21T18:36:08.955Z,83.70
2023-03-21T18:38:37.445Z,84.91
2023-03-21T18:41:05.549Z,86.68
2023-03-21T18:46:22.969Z,84.57
2023-03-21T18:48:51.802Z,84.59
2023-03-21T18:51:20.005Z,84.62
2023-03-21T18:53:47.774Z,84.96
2023-03-21T18:56:56.194Z,86.39
2023-03-21T18:59:03.676Z,86.30
2023-03-21T19:01:33.498Z,89.06
2023-03-21T19:04:23.803Z,85.95
2023-03-21T19:06:50.286Z,86.38
2023-03-21T19:09:18.711Z,85.81
2023-03-21T19:11:47.205Z,84.92
2023-03-21T19:14:17.125Z,86.88
2023-03-21T19:17:34.563Z,88.97
2023-03-21T19:19:34.658Z,88.85
2023-03-21T19:22:02.431Z,86.95
2023-03-21T19:24:30.127Z,87.92
2023-03-21T19:26:57.976Z,87.31
2023-03-21T19:29:26.128Z,86.88
2023-03-21T19:31:55.350Z,86.00
2023-03-21T19:34:23.146Z,88.23
2023-03-21T19:36:52.312Z,88.24
2023-03-21T19:39:22.405Z,87.94
2023-03-21T19:41:50.668Z,89.88
2023-03-21T19:44:19.139Z,90.85
2023-03-21T19:46:48.396Z,92.20
2023-03-21T19:49:22.234Z,91.66
2023-03-21T19:51:51.384Z,91.66
2023-03-21T19:54:19.251Z,91.39
2023-03-21T19:56:48.275Z,92.34
2023-03-21T19:59:17.245Z,92.95
2023-03-21T20:01:46.005Z,92.10
2023-03-21T20:04:14.826Z,92.94
2023-03-21T20:06:44.074Z,93.12
2023-03-21T20:12:01.408Z,92.89
2023-03-21T20:14:29.212Z,92.16
2023-03-21T20:16:57.319Z,92.20
2023-03-21T20:19:25.791Z,93.74
2023-03-21T20:21:59.823Z,93.98
2023-03-21T20:24:29.983Z,93.19
2023-03-21T20:26:57.710Z,93.60
2023-03-21T20:32:13.169Z,94.97
2023-03-21T20:34:40.984Z,94.72
2023-03-21T20:37:11.396Z,95.16
2023-03-21T20:39:39.267Z,94.07
2023-03-21T20:42:07.110Z,97.07
2023-03-21T20:44:55.904Z,97.25
2023-03-21T20:47:23.659Z,96.58
2023-03-21T20:49:51.422Z,98.10
2023-03-21T20:55:09.279Z,98.60
2023-03-21T20:57:38.752Z,98.89
2023-03-21T21:00:13.704Z,98.83
2023-03-21T21:02:42.592Z,97.00
2023-03-21T21:05:25.389Z,98.69
2023-03-21T21:07:56.778Z,94.85
2023-03-21T21:10:25.943Z,95.60
2023-03-21T21:12:53.863Z,95.35
2023-03-21T21:15:22.073Z,95.51
2023-03-21T21:18:05.361Z,95.69
2023-03-21T21:20:33.787Z,97.13
2023-03-21T21:23:03.026Z,96.28
2023-03-21T21:25:33.467Z,100.00
2023-03-21T21:28:02.311Z,98.43
2023-03-21T21:30:30.368Z,98.21
2023-03-21T21:32:59.583Z,95.53
2023-03-21T21:35:27.597Z,95.91
2023-03-21T21:37:55.399Z,97.57
2023-03-21T21:40:25.596Z,98.40
2023-03-21T21:42:53.609Z,98.49
2023-03-21T21:45:21.615Z,96.54
2023-03-21T21:47:49.583Z,96.58
2023-03-21T21:50:17.467Z,95.88
2023-03-21T21:52:52.510Z,96.46
2023-03-21T21:55:20.463Z,99.14
2023-03-21T21:57:51.044Z,96.89
2023-03-21T22:00:20.322Z,94.40
2023-03-21T22:02:48.274Z,98.66
2023-03-21T22:05:16.258Z,98.00
2023-03-21T22:07:44.424Z,98.40
2023-03-21T22:10:12.273Z,98.98
2023-03-21T22:12:39.980Z,99.08
2023-03-21T22:15:10.754Z,96.71
2023-03-21T22:17:39.793Z,98.18
2023-03-21T22:20:09.731Z,98.36
2023-03-21T22:22:38.428Z,96.75
2023-03-21T22:25:08.310Z,97.72
2023-03-21T22:27:36.350Z,97.17
2023-03-21T22:30:05.396Z,97.31
2023-03-21T22:32:35.268Z,97.34
2023-03-21T22:35:03.370Z,97.00
2023-03-21T22:37:31.351Z,97.37
2023-03-21T22:39:59.092Z,98.19
2023-03-21T22:42:27.276Z,97.47
2023-03-21T22:44:55.043Z,98.38
2023-03-21T22:47:22.818Z,98.64
2023-03-21T22:49:52.230Z,96.79
2023-03-21T22:52:19.975Z,98.05
2023-03-21T22:54:49.131Z,96.54
2023-03-21T22:57:17.716Z,96.69
2023-03-21T22:59:45.479Z,96.83
2023-03-21T23:02:13.442Z,98.71
2023-03-21T23:04:41.561Z,97.76
2023-03-21T23:07:10.866Z,99.48
2023-03-21T23:09:38.787Z,98.34
2023-03-21T23:12:06.996Z,100.00
2023-03-21T23:14:34.830Z,98.74
2023-03-21T23:17:02.681Z,97.58
2023-03-21T23:19:31.251Z,97.08
2023-03-21T23:21:59.170Z,97.65
2023-03-21T23:24:28.282Z,98.75
2023-03-21T23:26:55.993Z,97.92
2023-03-21T23:29:23.700Z,98.79
2023-03-21T23:31:51.393Z,98.72
2023-03-21T23:34:19.534Z,100.00
2023-03-21T23:36:47.463Z,100.00
2023-03-21T23:39:16.488Z,100.00
2023-03-21T23:41:45.631Z,100.00
2023-03-21T23:44:13.380Z,98.88
2023-03-21T23:46:41.083Z,100.00
2023-03-21T23:49:08.872Z,100.00
2023-03-21T23:51:36.577Z,100.00
2023-03-21T23:54:04.471Z,99.32
2023-03-21T23:56:32.394Z,100.00
2023-03-21T23:59:01.860Z,99.84
